Time;durP1;ratioP1;P1;durP2;ratioP2;P2;SDS_P1;SDS_P2;PMS_P1;PMS_P2;Temp;Humidity;BMP_temperature;BMP_pressure;BME280_temperature;BME280_humidity;BME280_pressure;Samples;Min_cycle;Max_cycle;Signal;HPM_P1;HPM_P2
2023/12/08 00:01:35;;;;;;;;;;;;;;;6.10;55.43;101163.03;5070902;28;20306;-83
2023/12/08 00:04:27;;;;;;;;;;;;;;;6.03;55.26;101165.22;5059787;28;19921;-84
2023/12/08 00:07:19;;;;;;;;;;;;;;;5.54;56.16;101157.69;5073292;28;19916;-83
2023/12/08 00:10:11;;;;;;;;;;;;;;;5.64;56.45;101155.00;5058845;28;19920;-83
2023/12/08 00:13:01;;;;;;;;;;;;;;;5.37;56.71;101141.81;5073754;28;19921;-83
2023/12/08 00:15:52;;;;;;;;;;;;;;;5.59;57.03;101155.81;5059287;28;19917;-83
2023/12/08 00:18:42;;;;;;;;;;;;;;;5.91;56.42;101150.13;5076672;28;19917;-83
2023/12/08 00:21:31;;;;;;;;;;;;;;;6.00;55.39;101150.38;5058900;28;19916;-83
2023/12/08 00:24:23;;;;;;;;;;;;;;;5.89;55.89;101138.78;5072372;28;19920;-83
2023/12/08 00:27:13;;;;;;;;;;;;;;;5.76;56.43;101133.94;5076062;28;20302;-83
2023/12/08 00:30:00;;;;;;;;;;;;;;;5.74;56.46;101130.69;5073811;28;19921;-84
2023/12/08 00:32:52;;;;;;;;;;;;;;;5.59;56.63;101117.22;5071340;28;19924;-83
2023/12/08 00:35:44;;;;;;;;;;;;;;;5.55;56.47;101113.47;5061948;28;19917;-83
2023/12/08 00:38:34;;;;;;;;;;;;;;;4.94;57.23;101108.09;5058187;28;19921;-83
2023/12/08 00:41:23;;;;;;;;;;;;;;;5.13;58.57;101103.78;5071062;28;19920;-83
2023/12/08 00:44:12;;;;;;;;;;;;;;;5.48;59.22;101099.47;5056533;28;19920;-83
2023/12/08 00:47:02;;;;;;;;;;;;;;;5.69;58.44;101103.72;5072387;28;19917;-84
2023/12/08 00:49:54;;;;;;;;;;;;;;;5.57;57.27;101119.41;5062275;28;19929;-83
2023/12/08 00:52:46;;;;;;;;;;;;;;;5.66;57.08;101123.16;5058018;28;19925;-83
2023/12/08 00:55:38;;;;;;;;;;;;;;;5.82;56.92;101115.84;5084286;28;19925;-83
2023/12/08 00:58:30;;;;;;;;;;;;;;;5.71;56.80;101117.75;5057598;28;19917;-83
2023/12/08 01:01:20;;;;;;;;;;;;;;;5.66;56.98;101116.97;5060005;28;20294;-83
2023/12/08 01:04:12;;;;;;;;;;;;;;;5.58;57.14;101121.03;5071013;28;19917;-83
2023/12/08 01:07:04;;;;;;;;;;;;;;;5.30;57.25;101117.00;5075097;28;19920;-83
2023/12/08 01:09:54;;;;;;;;;;;;;;;4.91;57.39;101116.72;5074907;28;19920;-84
2023/12/08 01:12:46;;;;;;;;;;;;;;;4.34;58.93;101121.41;5058010;28;19920;-83
2023/12/08 01:15:38;;;;;;;;;;;;;;;4.38;59.63;101122.50;5084461;28;19917;-83
2023/12/08 01:18:30;;;;;;;;;;;;;;;4.26;60.39;101120.03;5057039;28;19916;-82
2023/12/08 01:21:22;;;;;;;;;;;;;;;4.65;60.41;101118.56;5057088;28;19916;-82
2023/12/08 01:24:14;;;;;;;;;;;;;;;5.01;59.42;101119.41;5084059;28;19920;-82
2023/12/08 01:27:06;;;;;;;;;;;;;;;5.18;60.05;101112.97;5057750;28;19921;-83
2023/12/08 01:29:58;;;;;;;;;;;;;;;4.64;60.37;101111.53;5057460;28;19916;-83
2023/12/08 01:32:50;;;;;;;;;;;;;;;4.27;60.53;101114.38;5057660;28;20398;-83
2023/12/08 01:35:40;;;;;;;;;;;;;;;4.37;60.35;101119.00;5072721;28;19921;-82
2023/12/08 01:38:30;;;;;;;;;;;;;;;4.29;59.58;101117.63;5082906;28;19916;-83
2023/12/08 01:41:22;;;;;;;;;;;;;;;4.27;59.49;101111.69;5083659;28;19917;-83
2023/12/08 01:44:11;;;;;;;;;;;;;;;4.56;59.98;101122.03;5061519;28;20305;-83
2023/12/08 01:46:58;;;;;;;;;;;;;;;4.82;59.84;101117.50;5056164;28;19917;-83
2023/12/08 01:49:50;;;;;;;;;;;;;;;4.41;59.49;101109.34;5056816;28;20394;-83
2023/12/08 01:52:39;;;;;;;;;;;;;;;4.30;60.64;101107.69;5058471;28;19921;-84
2023/12/08 01:55:29;;;;;;;;;;;;;;;4.30;59.55;101103.09;5066230;28;19921;-83
2023/12/08 01:58:18;;;;;;;;;;;;;;;4.38;60.20;101095.56;5087820;28;19920;-83
2023/12/08 02:01:11;;;;;;;;;;;;;;;4.28;60.19;101080.19;5061385;28;19921;-84
2023/12/08 02:04:03;;;;;;;;;;;;;;;4.14;60.80;101079.09;5071268;28;19917;-83
2023/12/08 02:06:53;;;;;;;;;;;;;;;4.22;61.09;101075.88;5060402;28;19917;-83
2023/12/08 02:09:43;;;;;;;;;;;;;;;4.01;63.16;101077.69;5063479;28;20361;-84
2023/12/08 02:12:35;;;;;;;;;;;;;;;3.95;62.83;101073.34;5061286;28;19920;-83
2023/12/08 02:15:27;;;;;;;;;;;;;;;3.77;61.94;101074.59;5088041;28;20305;-83
2023/12/08 02:18:19;;;;;;;;;;;;;;;3.62;62.79;101061.06;5066772;28;19921;-83
2023/12/08 02:21:10;;;;;;;;;;;;;;;3.44;63.50;101054.25;5061067;28;19917;-83
2023/12/08 02:24:02;;;;;;;;;;;;;;;3.41;63.50;101043.19;5064219;28;20389;-83
2023/12/08 02:26:52;;;;;;;;;;;;;;;3.33;63.29;101041.81;5063312;28;19916;-83
2023/12/08 02:29:44;;;;;;;;;;;;;;;3.72;62.98;101045.00;5061198;28;19917;-82
2023/12/08 02:32:40;;;;;;;;;;;;;;;3.81;62.27;101042.59;5051160;28;19928;-83
2023/12/08 02:35:29;;;;;;;;;;;;;;;3.89;61.96;101028.69;5057273;28;19917;-82
2023/12/08 02:38:21;;;;;;;;;;;;;;;3.80;61.96;101027.56;5065593;28;19917;-83
2023/12/08 02:41:11;;;;;;;;;;;;;;;3.76;62.96;101021.06;5061025;28;19917;-83
2023/12/08 02:44:00;;;;;;;;;;;;;;;3.84;63.11;101023.28;5060000;28;20382;-82
2023/12/08 02:46:50;;;;;;;;;;;;;;;4.21;63.23;101020.44;5063207;28;19917;-83
2023/12/08 02:49:41;;;;;;;;;;;;;;;4.24;61.71;101003.75;5072756;28;19921;-84
2023/12/08 02:52:33;;;;;;;;;;;;;;;4.14;61.88;100992.97;5062518;28;19920;-84
2023/12/08 02:55:25;;;;;;;;;;;;;;;4.46;63.27;100992.75;5076032;28;19921;-85
2023/12/08 02:58:18;;;;;;;;;;;;;;;4.46;61.43;100998.97;5062055;28;19917;-83
2023/12/08 03:01:09;;;;;;;;;;;;;;;4.55;61.21;101000.03;5080253;28;19917;-83
2023/12/08 03:04:01;;;;;;;;;;;;;;;4.62;60.17;100999.78;5058469;28;19917;-83
2023/12/08 03:06:51;;;;;;;;;;;;;;;4.85;60.25;100988.47;5059766;28;19916;-83
2023/12/08 03:09:43;;;;;;;;;;;;;;;4.81;59.54;100979.31;5059862;28;20385;-83
2023/12/08 03:12:35;;;;;;;;;;;;;;;4.81;60.12;100976.63;5061475;28;19950;-83
2023/12/08 03:15:27;;;;;;;;;;;;;;;4.95;60.06;100983.06;5060140;28;19921;-83
2023/12/08 03:18:14;;;;;;;;;;;;;;;5.08;59.37;100977.09;5065579;28;19917;-84
2023/12/08 03:21:06;;;;;;;;;;;;;;;4.90;59.70;100976.88;5060904;28;19921;-84
2023/12/08 03:23:53;;;;;;;;;;;;;;;4.88;59.79;100977.13;5073722;28;19921;-84
2023/12/08 03:26:42;;;;;;;;;;;;;;;4.95;59.70;100976.84;5059957;28;19917;-84
2023/12/08 03:29:32;;;;;;;;;;;;;;;4.92;59.03;100967.44;5087807;28;20329;-84
2023/12/08 03:32:22;;;;;;;;;;;;;;;4.93;58.78;100965.53;5060307;28;19916;-84
2023/12/08 03:35:14;;;;;;;;;;;;;;;4.68;60.83;100967.19;5059921;28;19917;-83
2023/12/08 03:38:06;;;;;;;;;;;;;;;5.01;60.12;100959.63;5059760;28;19921;-83
2023/12/08 03:40:58;;;;;;;;;;;;;;;5.26;59.24;100972.22;5060731;28;19921;-83
2023/12/08 03:43:48;;;;;;;;;;;;;;;5.39;59.71;100974.34;5058927;28;19946;-83
2023/12/08 03:46:40;;;;;;;;;;;;;;;5.49;59.78;100977.81;5060337;28;20306;-84
2023/12/08 03:49:32;;;;;;;;;;;;;;;5.46;59.41;100967.59;5062503;28;19917;-84
2023/12/08 03:52:21;;;;;;;;;;;;;;;5.52;58.98;100963.00;5062918;28;19917;-84
2023/12/08 03:55:13;;;;;;;;;;;;;;;5.55;59.20;100959.72;5063256;28;20382;-84
2023/12/08 03:58:05;;;;;;;;;;;;;;;5.58;59.30;100964.59;5061956;28;19916;-84
2023/12/08 04:00:57;;;;;;;;;;;;;;;5.59;59.18;100958.09;5089021;28;19917;-84
2023/12/08 04:03:47;;;;;;;;;;;;;;;5.64;59.10;100962.69;5062344;28;19916;-85
2023/12/08 04:06:39;;;;;;;;;;;;;;;5.66;59.29;100958.59;5063278;28;19917;-85
2023/12/08 04:09:29;;;;;;;;;;;;;;;5.66;59.55;100966.69;5059931;28;20293;-84
2023/12/08 04:12:20;;;;;;;;;;;;;;;5.67;59.86;100962.94;5059920;28;20329;-84
2023/12/08 04:15:09;;;;;;;;;;;;;;;5.46;60.19;100964.09;5053026;28;19916;-85
2023/12/08 04:17:59;;;;;;;;;;;;;;;5.62;60.19;100962.94;5060971;28;19917;-84
2023/12/08 04:20:51;;;;;;;;;;;;;;;5.63;60.59;100969.16;5064420;28;19917;-85
2023/12/08 04:23:40;;;;;;;;;;;;;;;5.63;60.84;100959.19;5062040;28;20382;-85
2023/12/08 04:26:30;;;;;;;;;;;;;;;5.57;60.72;100963.78;5062114;28;19917;-84
2023/12/08 04:29:19;;;;;;;;;;;;;;;5.59;60.68;100963.47;5062427;28;19917;-84
2023/12/08 04:32:09;;;;;;;;;;;;;;;5.71;61.70;100958.59;5062399;28;19916;-85
2023/12/08 04:34:58;;;;;;;;;;;;;;;5.65;61.98;100970.47;5068279;28;19929;-84
2023/12/08 04:37:50;;;;;;;;;;;;;;;5.61;61.33;100961.31;5061623;28;19936;-85
2023/12/08 04:40:42;;;;;;;;;;;;;;;5.67;60.54;100962.94;5060535;28;19917;-84
2023/12/08 04:43:34;;;;;;;;;;;;;;;5.75;61.21;100953.44;5061271;28;19917;-84
2023/12/08 04:46:26;;;;;;;;;;;;;;;5.66;60.76;100950.50;5061622;28;19917;-84
2023/12/08 04:49:18;;;;;;;;;;;;;;;5.52;61.47;100950.31;5066164;28;19921;-85
2023/12/08 04:52:07;;;;;;;;;;;;;;;5.54;61.91;100944.63;5064084;28;19917;-84
2023/12/08 04:54:54;;;;;;;;;;;;;;;5.65;62.25;100937.28;5060724;28;20377;-83
2023/12/08 04:57:44;;;;;;;;;;;;;;;5.83;62.26;100931.28;5077113;28;20289;-84
2023/12/08 05:00:36;;;;;;;;;;;;;;;5.77;61.06;100930.50;5065875;28;19917;-83
2023/12/08 05:03:28;;;;;;;;;;;;;;;5.83;61.17;100933.97;5060098;28;20305;-83
2023/12/08 05:06:20;;;;;;;;;;;;;;;5.85;60.14;100924.50;5059093;28;19917;-84
2023/12/08 05:09:12;;;;;;;;;;;;;;;5.45;61.79;100932.78;5066069;28;19917;-84
2023/12/08 05:12:02;;;;;;;;;;;;;;;5.26;62.08;100929.91;5061527;28;19916;-84
2023/12/08 05:14:54;;;;;;;;;;;;;;;5.23;61.91;100926.97;5062000;28;19928;-83
2023/12/08 05:17:46;;;;;;;;;;;;;;;4.76;64.17;100932.72;5062820;28;19916;-84
2023/12/08 05:20:36;;;;;;;;;;;;;;;4.81;64.32;100932.69;5059364;28;19925;-83
2023/12/08 05:23:28;;;;;;;;;;;;;;;4.74;63.72;100933.78;5073859;28;19920;-84
2023/12/08 05:26:20;;;;;;;;;;;;;;;4.73;64.26;100929.47;5062469;28;19917;-84
2023/12/08 05:29:09;;;;;;;;;;;;;;;4.87;65.41;100929.75;5064008;28;20397;-84
2023/12/08 05:31:56;;;;;;;;;;;;;;;5.10;63.67;100920.25;5091189;28;20561;-84
2023/12/08 05:34:48;;;;;;;;;;;;;;;5.08;64.43;100928.59;5057890;28;22262;-83
2023/12/08 05:37:38;;;;;;;;;;;;;;;5.15;63.49;100926.44;5061175;28;19921;-83
2023/12/08 05:40:30;;;;;;;;;;;;;;;4.86;63.73;100925.41;5062096;28;19917;-83
2023/12/08 05:43:22;;;;;;;;;;;;;;;4.64;65.05;100914.94;5088339;28;19920;-83
2023/12/08 05:46:11;;;;;;;;;;;;;;;4.66;65.15;100910.09;5061158;28;19916;-83
2023/12/08 05:49:02;;;;;;;;;;;;;;;4.60;64.14;100911.16;5068197;28;19917;-84
2023/12/08 05:51:52;;;;;;;;;;;;;;;4.87;62.88;100912.75;5059632;28;20314;-83
2023/12/08 05:54:42;;;;;;;;;;;;;;;5.16;63.34;100932.63;5058938;28;20662;-84
2023/12/08 05:57:34;;;;;;;;;;;;;;;5.40;61.80;100922.84;5070690;28;19917;-84
2023/12/08 06:00:22;;;;;;;;;;;;;;;5.39;61.63;100929.31;5064860;28;19921;-83
2023/12/08 06:03:12;;;;;;;;;;;;;;;5.37;61.77;100933.38;5061527;28;19916;-84
2023/12/08 06:06:01;;;;;;;;;;;;;;;5.15;62.05;100931.81;5083155;28;19916;-82
2023/12/08 06:08:51;;;;;;;;;;;;;;;5.23;62.78;100925.06;5054146;28;19917;-83
2023/12/08 06:11:40;;;;;;;;;;;;;;;5.30;63.08;100924.75;5086411;28;19921;-84
2023/12/08 06:14:30;;;;;;;;;;;;;;;5.37;63.10;100930.69;5081284;28;20309;-84
2023/12/08 06:17:22;;;;;;;;;;;;;;;5.41;62.48;100927.16;5059947;28;19921;-83
2023/12/08 06:20:12;;;;;;;;;;;;;;;5.39;62.07;100925.81;5060521;28;19916;-83
2023/12/08 06:23:04;;;;;;;;;;;;;;;5.43;62.21;100918.81;5074050;28;19917;-84
2023/12/08 06:25:51;;;;;;;;;;;;;;;5.40;61.02;100905.84;5065673;28;19917;-85
2023/12/08 06:28:39;;;;;;;;;;;;;;;5.36;61.31;100907.50;5069635;28;19917;-85
2023/12/08 06:31:31;;;;;;;;;;;;;;;5.39;61.57;100902.34;5081852;28;19917;-84
2023/12/08 06:34:20;;;;;;;;;;;;;;;5.50;60.91;100898.53;5073739;28;19924;-84
2023/12/08 06:37:10;;;;;;;;;;;;;;;5.63;60.95;100902.53;5084543;28;20421;-83
2023/12/08 06:39:59;;;;;;;;;;;;;;;5.57;60.52;100899.03;5073521;28;19918;-84
2023/12/08 06:42:48;;;;;;;;;;;;;;;5.63;60.35;100897.13;5056940;28;19921;-84
2023/12/08 06:45:40;;;;;;;;;;;;;;;5.64;59.98;100906.03;5054441;28;19917;-83
2023/12/08 06:48:29;;;;;;;;;;;;;;;5.75;60.67;100912.97;5059546;28;20492;-85
2023/12/08 06:51:19;;;;;;;;;;;;;;;5.92;60.24;100898.06;5045071;28;19917;-85
2023/12/08 06:54:11;;;;;;;;;;;;;;;6.04;60.36;100896.91;5062417;28;19921;-84
2023/12/08 06:57:03;;;;;;;;;;;;;;;5.86;59.92;100901.84;5048090;28;19921;-85
2023/12/08 06:59:55;;;;;;;;;;;;;;;5.87;60.48;100900.78;5072065;28;19917;-85
2023/12/08 07:02:47;;;;;;;;;;;;;;;5.43;61.90;100898.03;5059660;28;19917;-85
2023/12/08 07:05:37;;;;;;;;;;;;;;;5.34;63.22;100899.66;5042015;28;19917;-85
2023/12/08 07:08:29;;;;;;;;;;;;;;;5.34;63.25;100904.25;5086853;28;19921;-84
2023/12/08 07:11:21;;;;;;;;;;;;;;;5.61;62.57;100901.97;5062133;28;19917;-84
2023/12/08 07:14:11;;;;;;;;;;;;;;;5.43;63.28;100899.91;5074737;28;19921;-84
2023/12/08 07:17:03;;;;;;;;;;;;;;;5.60;64.43;100908.47;5061036;28;19916;-84
2023/12/08 07:19:50;;;;;;;;;;;;;;;5.83;63.41;100907.81;5074146;28;19917;-83
2023/12/08 07:22:39;;;;;;;;;;;;;;;5.78;63.52;100907.84;5078991;28;19916;-85
2023/12/08 07:25:31;;;;;;;;;;;;;;;5.96;63.71;100907.22;5066409;28;20297;-83
2023/12/08 07:28:23;;;;;;;;;;;;;;;5.99;63.47;100906.63;5063748;28;19917;-83
2023/12/08 07:31:14;;;;;;;;;;;;;;;6.23;62.73;100916.75;5079971;28;19921;-83
2023/12/08 07:34:06;;;;;;;;;;;;;;;6.25;62.57;100914.56;5059113;28;19921;-83
2023/12/08 07:36:56;;;;;;;;;;;;;;;6.00;62.56;100919.06;5060360;28;19920;-84
2023/12/08 07:39:45;;;;;;;;;;;;;;;5.89;63.62;100914.03;5065245;28;19921;-84
2023/12/08 07:42:37;;;;;;;;;;;;;;;5.98;64.22;100907.75;5073910;28;19917;-84
2023/12/08 07:45:30;;;;;;;;;;;;;;;6.08;63.62;100922.25;5059506;28;19920;-84
2023/12/08 07:48:22;;;;;;;;;;;;;;;6.14;63.12;100926.53;5073784;28;19917;-84
2023/12/08 07:51:14;;;;;;;;;;;;;;;6.28;63.17;100925.63;5062072;28;20297;-84
2023/12/08 07:54:01;;;;;;;;;;;;;;;6.32;62.93;100936.66;5060727;28;19921;-84
2023/12/08 07:56:55;;;;;;;;;;;;;;;6.35;62.85;100945.00;5065363;28;19921;-84
2023/12/08 07:59:47;;;;;;;;;;;;;;;6.29;63.32;100942.63;5061015;28;19917;-84
2023/12/08 08:02:36;;;;;;;;;;;;;;;6.18;64.02;100938.38;5060700;28;19917;-84
2023/12/08 08:05:26;;;;;;;;;;;;;;;6.19;64.65;100934.59;5092316;28;19925;-84
2023/12/08 08:08:18;;;;;;;;;;;;;;;6.28;64.26;100941.03;5060613;28;19921;-84
2023/12/08 08:11:07;;;;;;;;;;;;;;;6.37;64.32;100942.03;5059558;28;19921;-84
2023/12/08 08:13:57;;;;;;;;;;;;;;;6.43;63.85;100949.81;5060163;28;19920;-84
2023/12/08 08:16:49;;;;;;;;;;;;;;;6.53;63.03;100948.94;5072837;28;19917;-84
2023/12/08 08:19:41;;;;;;;;;;;;;;;6.64;63.60;100953.16;5059222;28;19920;-84
2023/12/08 08:22:33;;;;;;;;;;;;;;;6.67;63.64;100960.69;5077195;28;19920;-84
2023/12/08 08:25:23;;;;;;;;;;;;;;;6.66;63.62;100964.47;5060981;28;20381;-84
2023/12/08 08:28:17;;;;;;;;;;;;;;;6.61;64.24;100961.81;5078724;28;19917;-84
2023/12/08 08:31:09;;;;;;;;;;;;;;;6.59;64.03;100960.50;5062503;28;19916;-84
2023/12/08 08:34:01;;;;;;;;;;;;;;;6.48;64.11;100958.97;5059305;28;19921;-84
2023/12/08 08:36:54;;;;;;;;;;;;;;;6.52;64.44;100966.22;5061710;28;19916;-85
2023/12/08 08:39:46;;;;;;;;;;;;;;;6.58;64.20;100967.81;5090653;28;19920;-88
2023/12/08 08:42:38;;;;;;;;;;;;;;;6.60;64.25;100962.94;5063250;28;19929;-87
2023/12/08 08:45:30;;;;;;;;;;;;;;;6.64;64.13;100969.38;5056031;28;19917;-86
2023/12/08 08:48:19;;;;;;;;;;;;;;;6.67;65.35;100971.50;5065472;28;19916;-87
2023/12/08 08:51:11;;;;;;;;;;;;;;;6.62;65.78;100973.44;5078614;28;19921;-86
2023/12/08 08:54:03;;;;;;;;;;;;;;;6.60;66.22;100975.63;5063985;28;19920;-88
2023/12/08 08:56:53;;;;;;;;;;;;;;;6.59;66.08;100982.94;5088642;28;19917;-87
2023/12/08 08:59:45;;;;;;;;;;;;;;;6.64;66.20;100985.59;5062089;28;19917;-86
2023/12/08 09:02:29;;;;;;;;;;;;;;;6.69;65.98;100996.38;5062458;28;19916;-87
2023/12/08 09:05:22;;;;;;;;;;;;;;;6.75;66.20;100989.84;5063328;28;19921;-87
2023/12/08 09:08:14;;;;;;;;;;;;;;;6.72;66.67;100987.69;5061419;28;19917;-87
2023/12/08 09:11:06;;;;;;;;;;;;;;;6.77;66.35;100992.22;5086210;28;19921;-88
2023/12/08 09:13:56;;;;;;;;;;;;;;;6.81;66.40;100998.69;5071251;28;20436;-87
2023/12/08 09:16:46;;;;;;;;;;;;;;;6.79;65.59;100992.78;5064348;28;19920;-87
2023/12/08 09:19:36;;;;;;;;;;;;;;;6.76;65.17;100994.13;5062448;28;19920;-88
2023/12/08 09:22:28;;;;;;;;;;;;;;;6.50;66.33;100997.31;5080581;28;19925;-87
2023/12/08 09:25:17;;;;;;;;;;;;;;;6.35;65.85;100998.22;5073211;28;19921;-87
2023/12/08 09:28:07;;;;;;;;;;;;;;;6.36;66.15;100999.81;5084368;28;19925;-87
2023/12/08 09:30:54;;;;;;;;;;;;;;;6.43;65.51;100995.75;5092099;28;19921;-86
2023/12/08 09:33:47;;;;;;;;;;;;;;;6.62;65.10;100992.34;5062346;28;19921;-87
2023/12/08 09:36:39;;;;;;;;;;;;;;;6.83;65.12;100989.22;5056980;28;19929;-87
2023/12/08 09:39:31;;;;;;;;;;;;;;;6.95;64.88;100988.03;5074112;28;19917;-88
2023/12/08 09:42:28;;;;;;;;;;;;;;;6.91;64.56;100987.00;5069440;28;19916;-86
2023/12/08 09:45:20;;;;;;;;;;;;;;;7.05;64.47;100972.53;5081317;28;19920;-86
2023/12/08 09:48:10;;;;;;;;;;;;;;;7.17;64.32;100969.41;5061140;28;20255;-86
2023/12/08 09:51:06;;;;;;;;;;;;;;;7.19;63.95;100959.13;5069360;28;19917;-85
2023/12/08 09:53:57;;;;;;;;;;;;;;;7.25;63.44;100956.09;5045309;28;20389;-86
2023/12/08 09:56:50;;;;;;;;;;;;;;;7.23;62.91;100952.06;5053645;28;20373;-88
2023/12/08 09:59:43;;;;;;;;;;;;;;;7.24;63.42;100950.97;5069552;28;19920;-88
2023/12/08 10:02:35;;;;;;;;;;;;;;;7.25;63.83;100949.88;5062524;28;20397;-88
2023/12/08 10:05:27;;;;;;;;;;;;;;;7.33;63.43;100949.25;5075140;28;19917;-88
2023/12/08 10:08:11;;;;;;;;;;;;;;;7.32;63.84;100945.72;5076439;28;19917;-89
2023/12/08 10:11:03;;;;;;;;;;;;;;;7.28;64.27;100938.47;5061092;28;19920;-87
2023/12/08 10:13:53;;;;;;;;;;;;;;;7.39;64.13;100928.34;5062241;28;19921;-89
2023/12/08 10:16:46;;;;;;;;;;;;;;;7.36;64.49;100927.03;5064835;28;19917;-88
2023/12/08 10:19:38;;;;;;;;;;;;;;;7.36;64.61;100918.13;5086928;28;19917;-88
2023/12/08 10:22:30;;;;;;;;;;;;;;;7.36;65.40;100908.09;5078610;28;19917;-88
2023/12/08 10:25:23;;;;;;;;;;;;;;;7.39;65.85;100912.13;5075488;28;19925;-88
2023/12/08 10:28:13;;;;;;;;;;;;;;;7.45;66.68;100903.66;5062285;28;19916;-88
2023/12/08 10:31:03;;;;;;;;;;;;;;;7.45;66.31;100892.03;5061623;28;20394;-87
2023/12/08 10:33:56;;;;;;;;;;;;;;;7.49;66.31;100890.34;5061539;28;20306;-87
2023/12/08 10:36:46;;;;;;;;;;;;;;;7.53;65.77;100886.78;5062497;28;19920;-88
2023/12/08 10:39:38;;;;;;;;;;;;;;;7.61;64.95;100883.44;5072455;28;19924;-88
2023/12/08 10:42:28;;;;;;;;;;;;;;;7.66;63.94;100877.97;5067631;28;19921;-86
2023/12/08 10:45:20;;;;;;;;;;;;;;;7.66;63.87;100869.84;5050940;28;19921;-87
2023/12/08 10:48:08;;;;;;;;;;;;;;;7.71;63.41;100867.06;5068519;28;20306;-88
2023/12/08 10:51:01;;;;;;;;;;;;;;;7.74;63.66;100861.03;5064409;28;19917;-88
2023/12/08 10:53:57;;;;;;;;;;;;;;;7.78;64.79;100857.75;5062790;28;19920;-88
2023/12/08 10:56:48;;;;;;;;;;;;;;;7.77;63.13;100858.88;5063827;28;19921;-86
2023/12/08 10:59:40;;;;;;;;;;;;;;;7.71;61.97;100856.22;5059601;28;19917;-86
2023/12/08 11:02:30;;;;;;;;;;;;;;;7.64;61.61;100844.16;5075133;28;19921;-86
2023/12/08 11:05:32;;;;;;;;;;;;;;;7.77;62.05;100842.63;5048864;28;19917;-87
2023/12/08 11:08:24;;;;;;;;;;;;;;;7.74;62.16;100839.41;5087946;28;19917;-85
2023/12/08 11:11:16;;;;;;;;;;;;;;;7.81;62.18;100840.94;5058242;28;19916;-86
2023/12/08 11:14:11;;;;;;;;;;;;;;;7.92;62.15;100824.25;5062681;28;19921;-85
2023/12/08 11:17:04;;;;;;;;;;;;;;;7.96;61.30;100819.03;5065657;28;19916;-85
2023/12/08 11:19:57;;;;;;;;;;;;;;;7.97;60.99;100820.66;5050887;28;19920;-82
2023/12/08 11:22:52;;;;;;;;;;;;;;;7.94;61.09;100813.91;5062637;28;19920;-84
2023/12/08 11:25:47;;;;;;;;;;;;;;;8.03;60.81;100808.63;5070580;28;19916;-86
2023/12/08 11:29:03;;;;;;;;;;;;;;;8.11;61.01;100799.84;5065279;28;19917;-84
2023/12/08 11:31:59;;;;;;;;;;;;;;;8.05;60.29;100803.72;5079987;28;19916;-81
2023/12/08 11:35:00;;;;;;;;;;;;;;;8.00;61.30;100801.09;5056497;28;19934;-83
2023/12/08 11:37:49;;;;;;;;;;;;;;;8.02;61.87;100802.44;5070164;28;20381;-83
2023/12/08 11:40:58;;;;;;;;;;;;;;;8.03;61.72;100795.06;5091432;28;20304;-83
2023/12/08 11:43:50;;;;;;;;;;;;;;;8.00;61.40;100792.97;5090917;28;19920;-83
2023/12/08 11:46:42;;;;;;;;;;;;;;;8.06;61.84;100789.91;5063254;28;19917;-83
2023/12/08 11:49:34;;;;;;;;;;;;;;;8.13;61.46;100779.47;5076822;28;19916;-82
2023/12/08 11:52:33;;;;;;;;;;;;;;;8.08;60.71;100787.69;5091546;28;19916;-83
2023/12/08 11:55:27;;;;;;;;;;;;;;;8.06;61.19;100781.78;5077879;28;19920;-82
2023/12/08 11:58:19;;;;;;;;;;;;;;;8.11;61.37;100778.16;5076670;28;19921;-83
2023/12/08 12:01:12;;;;;;;;;;;;;;;8.15;61.43;100774.56;5067100;28;20385;-83
2023/12/08 12:04:02;;;;;;;;;;;;;;;8.17;61.38;100766.16;5079064;28;19916;-83
2023/12/08 12:06:53;;;;;;;;;;;;;;;8.20;61.39;100762.84;5083199;28;19917;-83
2023/12/08 12:09:46;;;;;;;;;;;;;;;8.26;61.57;100761.66;5080740;28;19924;-83
2023/12/08 12:12:38;;;;;;;;;;;;;;;8.29;61.20;100768.38;5076345;28;20293;-83
2023/12/08 12:15:26;;;;;;;;;;;;;;;8.26;61.08;100758.94;5081852;28;19921;-83
2023/12/08 12:18:17;;;;;;;;;;;;;;;8.33;61.27;100756.66;5077427;28;19920;-83
2023/12/08 12:21:10;;;;;;;;;;;;;;;8.33;60.72;100753.19;5090883;28;20309;-83
2023/12/08 12:24:00;;;;;;;;;;;;;;;8.37;60.76;100741.44;5077864;28;19921;-83
2023/12/08 12:26:49;;;;;;;;;;;;;;;8.36;61.23;100741.72;5076669;28;19920;-82
2023/12/08 12:29:41;;;;;;;;;;;;;;;8.39;60.57;100744.63;5076353;28;19916;-83
2023/12/08 12:32:31;;;;;;;;;;;;;;;8.41;60.75;100738.91;5076507;28;20369;-83
2023/12/08 12:35:20;;;;;;;;;;;;;;;8.40;59.42;100743.53;5074326;28;19924;-82
2023/12/08 12:38:12;;;;;;;;;;;;;;;8.47;58.69;100738.53;5079229;28;19921;-83
2023/12/08 12:41:21;;;;;;;;;;;;;;;8.54;59.44;100735.41;5068552;28;19917;-83
2023/12/08 12:44:10;;;;;;;;;;;;;;;8.48;59.13;100731.22;5070738;28;20385;-83
2023/12/08 12:47:02;;;;;;;;;;;;;;;8.49;59.60;100730.88;5064293;28;20297;-83
2023/12/08 12:50:04;;;;;;;;;;;;;;;8.53;60.59;100728.41;5059281;28;19916;-83
2023/12/08 12:53:03;;;;;;;;;;;;;;;8.55;59.96;100728.88;5079555;28;19939;-83
2023/12/08 12:55:54;;;;;;;;;;;;;;;8.53;60.11;100725.69;5077652;28;19920;-83
2023/12/08 12:58:44;;;;;;;;;;;;;;;8.58;60.21;100726.38;5076980;28;20320;-83
2023/12/08 13:01:31;;;;;;;;;;;;;;;8.57;60.09;100726.69;5080265;28;19921;-83
2023/12/08 13:04:18;;;;;;;;;;;;;;;8.53;60.56;100721.03;5090434;28;19916;-83
2023/12/08 13:07:16;;;;;;;;;;;;;;;8.53;59.95;100721.03;5065159;28;19920;-83
2023/12/08 13:10:08;;;;;;;;;;;;;;;8.51;60.19;100720.56;5064755;28;20297;-83
2023/12/08 13:13:00;;;;;;;;;;;;;;;8.48;60.17;100713.03;5076833;28;20297;-83
2023/12/08 13:15:52;;;;;;;;;;;;;;;8.42;59.78;100710.72;5076267;28;19921;-83
2023/12/08 13:18:54;;;;;;;;;;;;;;;8.46;59.64;100704.41;5089604;28;19917;-82
2023/12/08 13:21:46;;;;;;;;;;;;;;;8.50;59.13;100701.88;5077180;28;19924;-82
2023/12/08 13:24:35;;;;;;;;;;;;;;;8.52;59.80;100708.63;5085770;28;19917;-83
2023/12/08 13:27:23;;;;;;;;;;;;;;;8.49;59.61;100702.97;5062814;28;19917;-82
2023/12/08 13:30:15;;;;;;;;;;;;;;;8.52;59.63;100692.38;5076490;28;20305;-83
2023/12/08 13:33:07;;;;;;;;;;;;;;;8.48;60.34;100696.75;5059152;28;20304;-83
2023/12/08 13:35:56;;;;;;;;;;;;;;;8.48;60.35;100691.34;5076470;28;19928;-83
2023/12/08 13:38:48;;;;;;;;;;;;;;;8.45;60.41;100691.94;5071651;28;20297;-82
2023/12/08 13:41:40;;;;;;;;;;;;;;;8.45;60.20;100688.44;5076587;28;19917;-83
2023/12/08 13:44:32;;;;;;;;;;;;;;;8.49;59.79;100692.94;5075727;28;19917;-83
2023/12/08 13:47:22;;;;;;;;;;;;;;;8.49;59.51;100682.09;5076606;28;19920;-83
2023/12/08 13:50:14;;;;;;;;;;;;;;;8.52;59.92;100686.13;5078444;28;20242;-83
2023/12/08 13:53:06;;;;;;;;;;;;;;;8.54;59.90;100684.72;5067175;28;19916;-83
2023/12/08 13:55:56;;;;;;;;;;;;;;;8.54;60.42;100675.78;5064938;28;19920;-83
2023/12/08 13:58:53;;;;;;;;;;;;;;;8.57;60.04;100677.91;5071730;28;19917;-83
2023/12/08 14:01:43;;;;;;;;;;;;;;;8.50;60.04;100683.72;5098382;28;19920;-83
2023/12/08 14:04:35;;;;;;;;;;;;;;;8.48;59.75;100680.50;5078803;28;20309;-83
2023/12/08 14:07:24;;;;;;;;;;;;;;;8.52;60.19;100689.66;5071711;28;20301;-83
2023/12/08 14:10:14;;;;;;;;;;;;;;;8.53;59.93;100688.53;5079857;28;19917;-82
2023/12/08 14:13:06;;;;;;;;;;;;;;;8.50;59.61;100693.75;5080043;28;19916;-83
2023/12/08 14:15:58;;;;;;;;;;;;;;;8.54;59.15;100686.63;5075955;28;19920;-82
2023/12/08 14:18:50;;;;;;;;;;;;;;;8.58;58.98;100695.78;5064568;28;19920;-83
2023/12/08 14:21:39;;;;;;;;;;;;;;;8.57;59.08;100700.38;5071729;28;19921;-85
2023/12/08 14:24:28;;;;;;;;;;;;;;;8.55;59.17;100697.16;5063870;28;19921;-85
2023/12/08 14:27:20;;;;;;;;;;;;;;;8.52;59.01;100700.50;5061950;28;19920;-84
2023/12/08 14:30:10;;;;;;;;;;;;;;;8.45;58.60;100685.72;5073545;28;19917;-84
2023/12/08 14:33:02;;;;;;;;;;;;;;;8.45;58.15;100691.16;5062229;28;19921;-84
2023/12/08 14:35:52;;;;;;;;;;;;;;;8.46;58.18;100690.84;5087318;28;20336;-85
2023/12/08 14:38:44;;;;;;;;;;;;;;;8.46;58.29;100690.84;5081013;28;20286;-85
2023/12/08 14:41:36;;;;;;;;;;;;;;;8.38;57.59;100691.53;5075923;28;19920;-86
2023/12/08 14:44:27;;;;;;;;;;;;;;;8.37;57.84;100692.66;5073422;28;19917;-85
2023/12/08 14:47:19;;;;;;;;;;;;;;;8.34;57.27;100701.38;5066160;28;19921;-86
2023/12/08 14:50:09;;;;;;;;;;;;;;;8.25;58.28;100694.22;5089710;28;19916;-86
2023/12/08 14:53:01;;;;;;;;;;;;;;;8.28;58.02;100696.34;5056497;28;19916;-86